createdAt,value
2022-09-29T00:01:50.693Z,6.00
2022-09-29T00:04:47.693Z,6.00
2022-09-29T00:07:44.149Z,5.00
2022-09-29T00:10:41.759Z,6.75
2022-09-29T00:13:38.861Z,10.00
2022-09-29T00:16:36.533Z,8.75
2022-09-29T00:19:33.753Z,7.00
2022-09-29T00:22:31.416Z,7.50
2022-09-29T00:25:28.509Z,11.00
2022-09-29T00:28:25.257Z,6.25
2022-09-29T00:31:23.268Z,4.00
2022-09-29T00:34:20.769Z,6.25
2022-09-29T00:37:18.713Z,5.00
2022-09-29T00:40:16.366Z,7.50
2022-09-29T00:43:13.915Z,7.75
2022-09-29T00:46:12.793Z,6.25
2022-09-29T00:49:20.390Z,7.00
2022-09-29T00:52:27.238Z,9.00
2022-09-29T00:55:27.883Z,8.50
2022-09-29T00:58:55.031Z,4.00
2022-09-29T01:01:52.494Z,6.00
2022-09-29T01:04:51.935Z,10.67
2022-09-29T01:07:49.873Z,8.75
2022-09-29T01:10:47.552Z,11.40
2022-09-29T01:13:44.480Z,6.80
2022-09-29T01:16:43.140Z,7.40
2022-09-29T01:19:47.357Z,9.00
2022-09-29T01:22:50.711Z,6.75
2022-09-29T01:26:11.879Z,9.00
2022-09-29T01:29:27.678Z,6.00
2022-09-29T01:32:42.755Z,7.00
2022-09-29T01:35:45.627Z,7.25
2022-09-29T01:38:55.914Z,6.00
2022-09-29T01:42:10.183Z,6.75
2022-09-29T01:45:21.697Z,8.75
2022-09-29T01:48:24.615Z,8.50
2022-09-29T01:51:30.342Z,6.00
2022-09-29T01:54:49.962Z,6.00
2022-09-29T01:57:53.008Z,7.75
2022-09-29T02:00:53.484Z,9.00
2022-09-29T02:04:04.703Z,7.25
2022-09-29T02:07:04.684Z,9.75
2022-09-29T02:10:03.309Z,9.00
2022-09-29T02:13:00.710Z,11.00
2022-09-29T02:15:57.497Z,13.00
2022-09-29T02:19:13.586Z,6.00
2022-09-29T02:22:10.685Z,10.25
2022-09-29T02:25:09.492Z,8.25
2022-09-29T02:28:07.106Z,8.50
2022-09-29T02:31:04.476Z,9.25
2022-09-29T02:34:02.154Z,7.25
2022-09-29T02:37:13.763Z,9.25
2022-09-29T02:40:22.860Z,9.25
2022-09-29T02:44:00.538Z,15.00
2022-09-29T02:47:19.380Z,17.75
2022-09-29T02:50:39.493Z,8.75
2022-09-29T02:54:07.633Z,10.25
2022-09-29T02:57:38.349Z,6.00
2022-09-29T03:00:35.969Z,6.50
2022-09-29T03:03:33.422Z,9.75
2022-09-29T03:06:31.064Z,7.00
2022-09-29T03:09:28.453Z,16.25
2022-09-29T03:12:25.417Z,5.75
2022-09-29T03:15:22.558Z,9.75
2022-09-29T03:18:20.023Z,13.00
2022-09-29T03:21:17.447Z,16.75
2022-09-29T03:24:14.492Z,9.00
2022-09-29T03:27:11.723Z,13.50
2022-09-29T03:30:12.244Z,22.75
2022-09-29T03:33:09.797Z,11.25
2022-09-29T03:36:09.115Z,12.25
2022-09-29T03:39:06.790Z,16.00
2022-09-29T03:42:04.035Z,11.00
2022-09-29T03:45:01.422Z,11.50
2022-09-29T03:47:58.574Z,15.25
2022-09-29T03:50:55.865Z,11.50
2022-09-29T03:53:52.412Z,9.75
2022-09-29T03:56:49.757Z,14.50
2022-09-29T03:59:46.606Z,9.75
2022-09-29T04:02:43.655Z,14.00
2022-09-29T04:05:40.805Z,18.25
2022-09-29T04:08:37.679Z,13.50
2022-09-29T04:11:34.822Z,12.75
2022-09-29T04:14:31.949Z,9.00
2022-09-29T04:17:31.563Z,7.00
2022-09-29T04:20:28.634Z,8.25
2022-09-29T04:23:25.463Z,5.50
2022-09-29T04:26:22.412Z,7.33
2022-09-29T04:29:19.627Z,6.00
2022-09-29T04:32:16.986Z,12.75
2022-09-29T04:35:14.699Z,7.33
2022-09-29T04:38:11.789Z,10.00
2022-09-29T04:41:08.950Z,16.00
2022-09-29T04:44:06.235Z,8.50
2022-09-29T04:47:03.465Z,9.00
2022-09-29T04:50:00.390Z,8.33
2022-09-29T04:52:57.816Z,10.00
2022-09-29T04:55:54.680Z,6.00
2022-09-29T04:58:51.825Z,9.00
2022-09-29T05:01:49.431Z,8.00
2022-09-29T05:04:47.633Z,17.00
2022-09-29T05:07:45.863Z,16.00
2022-09-29T05:10:42.897Z,9.00
2022-09-29T05:13:40.155Z,6.50
2022-09-29T05:16:37.686Z,8.00
2022-09-29T05:19:34.549Z,9.00
2022-09-29T05:22:31.552Z,11.00
2022-09-29T05:25:28.844Z,15.50
2022-09-29T05:28:25.373Z,9.00
2022-09-29T05:31:23.226Z,9.33
2022-09-29T05:34:21.097Z,14.25
2022-09-29T05:37:18.743Z,12.50
2022-09-29T05:40:15.743Z,13.25
2022-09-29T05:43:12.760Z,8.50
2022-09-29T05:46:10.112Z,9.50
2022-09-29T05:49:07.608Z,13.00
2022-09-29T05:52:04.498Z,12.25
2022-09-29T05:55:02.022Z,8.00
2022-09-29T05:57:58.437Z,10.00
2022-09-29T06:00:55.758Z,9.00
2022-09-29T06:03:56.064Z,11.00
2022-09-29T06:06:55.302Z,11.25
2022-09-29T06:09:52.980Z,9.00
2022-09-29T06:12:49.548Z,11.00
2022-09-29T06:15:46.386Z,13.00
2022-09-29T06:18:43.940Z,9.00
2022-09-29T06:21:41.217Z,10.25
2022-09-29T06:24:38.930Z,12.00
2022-09-29T06:27:36.069Z,13.33
2022-09-29T06:30:32.693Z,12.25
2022-09-29T06:33:31.147Z,13.50
2022-09-29T06:36:50.586Z,10.60
2022-09-29T06:39:47.972Z,13.75
2022-09-29T06:42:45.189Z,11.25
2022-09-29T06:45:42.638Z,13.50
2022-09-29T06:48:39.461Z,13.50
2022-09-29T06:51:45.452Z,12.00
2022-09-29T06:54:42.604Z,14.25
2022-09-29T06:57:40.622Z,13.00
2022-09-29T07:00:37.930Z,12.25
2022-09-29T07:03:35.418Z,8.75
2022-09-29T07:06:32.770Z,11.50
2022-09-29T07:09:29.582Z,16.75
2022-09-29T07:12:26.734Z,15.00
2022-09-29T07:15:31.650Z,15.25
2022-09-29T07:18:29.203Z,12.00
2022-09-29T07:21:26.650Z,13.00
2022-09-29T07:24:24.955Z,15.00
2022-09-29T07:27:24.347Z,19.50
2022-09-29T07:30:30.590Z,18.50
2022-09-29T07:33:38.869Z,16.75
2022-09-29T07:36:39.057Z,17.00
2022-09-29T07:39:35.940Z,15.80
2022-09-29T07:42:32.914Z,17.00
2022-09-29T07:45:29.919Z,17.00
2022-09-29T07:48:31.428Z,14.25
2022-09-29T07:51:28.677Z,21.50
2022-09-29T07:54:29.289Z,16.00
2022-09-29T07:57:26.605Z,16.50
2022-09-29T08:00:23.630Z,18.75
2022-09-29T08:03:20.406Z,17.25
2022-09-29T08:06:18.006Z,23.00
2022-09-29T08:09:15.368Z,15.25
2022-09-29T08:12:12.935Z,22.75
2022-09-29T08:15:10.086Z,16.40
2022-09-29T08:18:08.015Z,21.00
2022-09-29T08:21:04.938Z,25.00
2022-09-29T08:24:02.529Z,20.75
2022-09-29T08:27:07.622Z,18.25
2022-09-29T08:30:10.421Z,22.00
2022-09-29T08:33:14.577Z,13.00
2022-09-29T08:36:14.688Z,18.00
2022-09-29T08:39:12.446Z,17.60
2022-09-29T08:42:48.706Z,19.75
2022-09-29T08:45:59.926Z,18.80
2022-09-29T08:48:58.737Z,18.80
2022-09-29T08:52:04.695Z,17.75
2022-09-29T08:55:21.124Z,19.20
2022-09-29T08:58:18.923Z,21.00
2022-09-29T09:01:31.544Z,18.00
2022-09-29T09:04:34.833Z,11.60
2022-09-29T09:07:42.076Z,10.60
2022-09-29T09:10:47.522Z,8.80
2022-09-29T09:14:10.004Z,14.00
2022-09-29T09:17:38.230Z,9.00
2022-09-29T09:20:51.330Z,9.60
2022-09-29T09:24:04.473Z,9.60
2022-09-29T09:27:01.993Z,9.00
2022-09-29T09:30:05.168Z,7.40
2022-09-29T09:33:04.415Z,7.80
2022-09-29T09:36:05.577Z,9.60
2022-09-29T09:39:16.709Z,10.50
2022-09-29T09:42:33.344Z,8.20
2022-09-29T09:45:38.276Z,9.75
2022-09-29T09:48:38.810Z,9.00
2022-09-29T09:51:46.691Z,7.50
2022-09-29T09:54:46.654Z,11.33
2022-09-29T09:58:12.353Z,7.80
2022-09-29T10:01:12.409Z,9.00
2022-09-29T10:04:14.401Z,7.00
2022-09-29T10:07:11.705Z,13.50
2022-09-29T10:10:23.870Z,3.00
2022-09-29T10:13:21.187Z,7.25
2022-09-29T10:16:21.092Z,9.75
2022-09-29T10:20:15.129Z,7.25
2022-09-29T10:23:34.470Z,5.50
2022-09-29T10:26:41.341Z,7.00
2022-09-29T10:29:40.497Z,11.00
2022-09-29T10:32:38.147Z,7.00
2022-09-29T10:35:39.826Z,18.25
2022-09-29T10:38:37.955Z,10.75
2022-09-29T10:41:50.154Z,11.00
2022-09-29T10:45:14.147Z,11.25
2022-09-29T10:48:14.331Z,10.00
2022-09-29T10:51:14.615Z,22.00
2022-09-29T10:54:15.288Z,3.50
2022-09-29T10:57:14.449Z,12.25
2022-09-29T11:00:34.901Z,26.00
2022-09-29T11:03:31.973Z,15.25
2022-09-29T11:06:39.379Z,16.00
2022-09-29T11:09:43.634Z,7.00
2022-09-29T11:12:41.045Z,21.75
2022-09-29T11:15:41.497Z,18.75
2022-09-29T11:18:38.823Z,16.00
2022-09-29T11:21:54.521Z,13.50
2022-09-29T11:25:09.934Z,23.75
2022-09-29T11:28:34.329Z,26.50
2022-09-29T11:31:39.843Z,16.00
2022-09-29T11:34:52.100Z,31.33
2022-09-29T11:37:59.557Z,33.67
2022-09-29T11:40:59.643Z,34.67
2022-09-29T11:44:01.854Z,35.33
2022-09-29T11:47:23.545Z,36.25
2022-09-29T11:50:42.840Z,36.67
2022-09-29T11:53:51.540Z,36.67
2022-09-29T11:56:54.275Z,35.00
2022-09-29T12:00:08.947Z,34.00
2022-09-29T12:03:09.142Z,39.33
2022-09-29T12:06:17.957Z,34.00
2022-09-29T12:09:41.442Z,35.67
2022-09-29T12:12:42.327Z,39.00
2022-09-29T12:15:57.571Z,38.00
2022-09-29T12:19:18.475Z,33.00
2022-09-29T12:22:21.482Z,38.00
2022-09-29T12:25:22.458Z,34.75
2022-09-29T12:28:22.189Z,41.33
2022-09-29T12:31:37.408Z,39.33
2022-09-29T12:34:52.974Z,37.00
2022-09-29T12:37:56.816Z,32.25
2022-09-29T12:41:15.218Z,37.50
2022-09-29T12:44:30.926Z,40.75
2022-09-29T12:47:46.401Z,39.00
2022-09-29T12:50:54.760Z,39.75
2022-09-29T12:54:01.359Z,35.50
2022-09-29T12:57:01.072Z,42.33
2022-09-29T13:00:01.494Z,39.50
2022-09-29T13:03:23.713Z,39.50
2022-09-29T13:06:40.480Z,33.25
2022-09-29T13:09:43.801Z,35.25
2022-09-29T13:12:53.049Z,29.50
2022-09-29T13:16:28.461Z,34.25
2022-09-29T13:19:58.515Z,35.75
2022-09-29T13:23:01.250Z,23.25
2022-09-29T13:26:13.443Z,27.00
2022-09-29T13:29:14.609Z,31.00
2022-09-29T13:32:11.678Z,28.50
2022-09-29T13:35:21.566Z,23.25
2022-09-29T13:38:22.984Z,31.50
2022-09-29T13:41:22.755Z,37.25
2022-09-29T13:44:23.762Z,32.25
2022-09-29T13:47:32.045Z,36.00
2022-09-29T13:50:48.157Z,37.25
2022-09-29T13:53:45.184Z,36.00
2022-09-29T13:56:42.098Z,40.33
2022-09-29T13:59:40.182Z,36.50
2022-09-29T14:02:44.652Z,41.67
2022-09-29T14:05:45.640Z,40.00
2022-09-29T14:08:49.651Z,37.75
2022-09-29T14:11:51.458Z,41.00
2022-09-29T14:14:54.626Z,41.00
2022-09-29T14:17:57.481Z,41.00
2022-09-29T14:21:04.131Z,40.67
2022-09-29T14:24:01.283Z,41.00
2022-09-29T14:27:14.434Z,41.00
2022-09-29T14:30:17.628Z,38.67
2022-09-29T14:33:35.708Z,43.00
2022-09-29T14:36:32.692Z,37.33
2022-09-29T14:39:30.118Z,29.50
2022-09-29T14:42:27.200Z,37.25
2022-09-29T14:45:42.533Z,25.00
2022-09-29T14:49:14.470Z,21.25
2022-09-29T14:52:35.592Z,32.50
2022-09-29T14:55:48.560Z,36.50
2022-09-29T14:59:11.763Z,31.25
2022-09-29T15:02:21.600Z,22.00
2022-09-29T15:05:31.127Z,28.75
2022-09-29T15:08:29.724Z,26.00
2022-09-29T15:11:31.258Z,27.75
2022-09-29T15:14:29.420Z,21.75
2022-09-29T15:17:45.115Z,30.75
2022-09-29T15:21:16.671Z,23.50
2022-09-29T15:24:30.238Z,12.50
2022-09-29T15:27:27.174Z,33.00
2022-09-29T15:30:24.764Z,33.00
2022-09-29T15:33:29.579Z,32.25
2022-09-29T15:36:38.129Z,53.00
2022-09-29T15:39:40.932Z,31.50
2022-09-29T15:42:38.605Z,35.00
2022-09-29T15:45:35.826Z,33.75
2022-09-29T15:48:33.292Z,35.00
2022-09-29T15:51:30.873Z,38.25
2022-09-29T15:57:55.869Z,32.75
2022-09-29T16:00:56.395Z,32.75
2022-09-29T16:03:57.603Z,30.25
2022-09-29T16:06:54.983Z,23.75
2022-09-29T16:09:52.648Z,28.00
2022-09-29T16:12:54.875Z,24.00
2022-09-29T16:15:52.642Z,23.50
2022-09-29T16:18:49.803Z,11.50
2022-09-29T16:21:50.969Z,19.25
2022-09-29T16:25:08.557Z,31.75
2022-09-29T16:28:09.670Z,35.00
2022-09-29T16:31:22.596Z,37.33
2022-09-29T16:34:23.260Z,38.75
2022-09-29T16:37:22.842Z,40.33
2022-09-29T16:40:24.961Z,41.00
2022-09-29T16:43:27.357Z,40.67
2022-09-29T16:46:24.534Z,40.33
2022-09-29T16:49:27.988Z,41.67
2022-09-29T16:52:32.290Z,42.33
2022-09-29T16:55:29.468Z,37.33
2022-09-29T16:58:26.683Z,33.67
2022-09-29T17:01:24.994Z,34.00
2022-09-29T17:04:22.615Z,28.67
2022-09-29T17:07:21.629Z,19.33
2022-09-29T17:10:20.580Z,28.50
2022-09-29T17:13:18.166Z,34.67
2022-09-29T17:16:21.281Z,24.75
2022-09-29T17:19:18.823Z,38.67
2022-09-29T17:22:37.631Z,34.25
2022-09-29T17:25:36.084Z,33.25
2022-09-29T17:28:36.675Z,29.00
2022-09-29T17:31:34.289Z,31.25
2022-09-29T17:34:32.763Z,29.00
2022-09-29T17:37:30.080Z,26.00
2022-09-29T17:40:35.972Z,30.50
2022-09-29T17:43:33.730Z,24.25
2022-09-29T17:46:31.201Z,29.75
2022-09-29T17:49:28.086Z,31.00
2022-09-29T17:52:25.652Z,25.00
2022-09-29T17:55:23.175Z,26.75
2022-09-29T17:58:20.225Z,24.00
2022-09-29T18:01:20.127Z,17.50
2022-09-29T18:04:17.311Z,23.00
2022-09-29T18:07:14.555Z,15.50
2022-09-29T18:10:32.116Z,22.50
2022-09-29T18:13:31.499Z,19.00
2022-09-29T18:16:28.531Z,24.50
2022-09-29T18:19:25.973Z,5.00
2022-09-29T18:22:24.365Z,11.00
2022-09-29T18:25:21.503Z,24.00
2022-09-29T18:28:18.549Z,20.75
2022-09-29T18:31:22.198Z,24.00
2022-09-29T18:34:19.754Z,14.75
2022-09-29T18:37:17.334Z,21.75
2022-09-29T18:40:14.167Z,16.00
2022-09-29T18:43:12.455Z,24.75
2022-09-29T18:46:09.636Z,14.75
2022-09-29T18:49:07.071Z,8.75
2022-09-29T18:52:05.206Z,21.50
2022-09-29T18:55:02.516Z,19.00
2022-09-29T18:58:00.486Z,8.00
2022-09-29T19:00:57.528Z,11.75
2022-09-29T19:03:54.457Z,10.75
2022-09-29T19:06:51.282Z,7.75
2022-09-29T19:09:48.843Z,1.75
2022-09-29T19:12:48.491Z,2.75
2022-09-29T19:15:45.382Z,2.75
2022-09-29T19:18:42.551Z,26.00
2022-09-29T19:21:39.450Z,28.50
2022-09-29T19:24:36.550Z,11.00
2022-09-29T19:27:33.666Z,9.75
2022-09-29T19:30:31.038Z,14.50
2022-09-29T19:33:28.437Z,6.25
2022-09-29T19:36:25.489Z,17.50
2022-09-29T19:39:23.207Z,17.75
2022-09-29T19:42:20.658Z,22.00
2022-09-29T19:45:17.717Z,21.00
2022-09-29T19:48:17.298Z,18.50
2022-09-29T19:51:33.790Z,16.00
2022-09-29T19:54:33.666Z,29.00
2022-09-29T19:57:32.181Z,23.75
2022-09-29T20:00:29.588Z,18.00
2022-09-29T20:03:26.262Z,5.25
2022-09-29T20:06:23.921Z,9.75
2022-09-29T20:09:21.180Z,7.25
2022-09-29T20:12:19.621Z,12.75
2022-09-29T20:15:17.685Z,9.00
2022-09-29T20:18:14.987Z,10.50
2022-09-29T20:21:15.440Z,21.75
2022-09-29T20:24:14.720Z,25.00
2022-09-29T20:27:12.665Z,6.25
2022-09-29T20:30:09.737Z,15.25
2022-09-29T20:33:07.448Z,15.50
2022-09-29T20:36:05.130Z,3.33
2022-09-29T20:39:02.310Z,2.00
2022-09-29T20:41:59.468Z,3.67
2022-09-29T20:44:56.788Z,1.25
2022-09-29T20:47:54.494Z,2.33
2022-09-29T20:50:51.565Z,1.00
2022-09-29T20:53:56.496Z,1.25
2022-09-29T20:56:53.928Z,2.00
2022-09-29T20:59:51.513Z,1.00
2022-09-29T21:02:51.499Z,1.00
2022-09-29T21:05:50.850Z,1.25
2022-09-29T21:08:48.771Z,2.00
2022-09-29T21:11:47.425Z,2.00
2022-09-29T21:14:44.501Z,1.00
2022-09-29T21:17:41.413Z,2.25
2022-09-29T21:20:38.450Z,2.00
2022-09-29T21:23:36.898Z,1.00
2022-09-29T21:26:34.513Z,1.20
2022-09-29T21:29:31.403Z,1.00
2022-09-29T21:32:29.348Z,1.00
2022-09-29T21:35:26.809Z,6.67
2022-09-29T21:38:24.680Z,2.00
2022-09-29T21:41:26.386Z,11.25
2022-09-29T21:44:26.209Z,4.67
2022-09-29T21:47:43.236Z,4.00
2022-09-29T21:50:40.879Z,3.00
2022-09-29T21:53:39.046Z,4.50
2022-09-29T21:56:40.338Z,2.75
2022-09-29T21:59:37.319Z,1.00
2022-09-29T22:02:35.691Z,2.00
2022-09-29T22:05:32.562Z,4.00
2022-09-29T22:08:30.222Z,3.25
2022-09-29T22:11:29.296Z,1.50
2022-09-29T22:14:26.609Z,2.50
2022-09-29T22:17:23.313Z,2.25
2022-09-29T22:20:20.557Z,4.75
2022-09-29T22:23:17.391Z,4.00
2022-09-29T22:26:15.857Z,3.25
2022-09-29T22:29:13.565Z,5.75
2022-09-29T22:32:10.513Z,3.00
2022-09-29T22:35:07.894Z,6.00
2022-09-29T22:38:08.130Z,3.25
2022-09-29T22:41:10.595Z,4.00
2022-09-29T22:44:08.135Z,2.50
2022-09-29T22:47:05.612Z,3.00
2022-09-29T22:50:02.494Z,2.25
2022-09-29T22:52:59.704Z,3.25
2022-09-29T22:55:56.695Z,3.00
2022-09-29T22:58:53.240Z,2.00
2022-09-29T23:01:50.756Z,2.00
2022-09-29T23:04:48.007Z,3.00
2022-09-29T23:07:45.639Z,6.00
2022-09-29T23:10:48.168Z,2.67
2022-09-29T23:13:45.752Z,5.67
2022-09-29T23:16:42.833Z,5.33
2022-09-29T23:19:40.334Z,11.50
2022-09-29T23:22:37.521Z,17.25
2022-09-29T23:25:34.626Z,9.75
2022-09-29T23:28:31.285Z,6.75
2022-09-29T23:31:28.880Z,14.75
2022-09-29T23:34:26.545Z,11.25
2022-09-29T23:37:43.641Z,20.25
2022-09-29T23:40:41.757Z,16.75
2022-09-29T23:43:38.839Z,21.00
2022-09-29T23:46:38.195Z,13.00
2022-09-29T23:49:35.206Z,17.25
2022-09-29T23:52:32.611Z,16.00
2022-09-29T23:55:29.803Z,12.75
2022-09-29T23:58:26.941Z,16.25
